Time;durP1;ratioP1;P1;durP2;ratioP2;P2;SDS_P1;SDS_P2;PMS_P1;PMS_P2;Temp;Humidity;BMP_temperature;BMP_pressure;BME280_temperature;BME280_humidity;BME280_pressure;Samples;Min_cycle;Max_cycle;Signal;HPM_P1;HPM_P2
2023/10/18 00:01:00;;;;;;;1.17;1.17;;;;;;;8.24;79.00;101134.03;5108176;28;20060;-65
2023/10/18 00:03:30;;;;;;;3.17;1.70;;;;;;;8.18;79.47;101135.34;5104185;28;20114;-66
2023/10/18 00:06:07;;;;;;;2.15;1.30;;;;;;;8.21;79.08;101143.53;5090192;28;20036;-65
2023/10/18 00:08:32;;;;;;;1.48;1.13;;;;;;;8.23;79.04;101142.41;5109021;28;20039;-64
2023/10/18 00:11:00;;;;;;;1.33;1.10;;;;;;;8.13;79.65;101140.88;5084834;28;20030;-65
2023/10/18 00:13:25;;;;;;;1.05;1.00;;;;;;;8.11;80.02;101137.75;5107560;28;20081;-66
2023/10/18 00:15:53;;;;;;;2.15;1.30;;;;;;;8.12;79.07;101134.75;5108140;28;20031;-68
2023/10/18 00:18:21;;;;;;;1.65;1.17;;;;;;;8.12;79.21;101129.41;5103842;28;20038;-65
2023/10/18 00:20:57;;;;;;;3.17;1.58;;;;;;;8.11;79.03;101129.69;5102472;28;20122;-65
2023/10/18 00:23:22;;;;;;;1.50;1.10;;;;;;;8.11;78.73;101124.34;5107465;28;20042;-65
2023/10/18 00:25:47;;;;;;;1.65;1.00;;;;;;;7.83;80.61;101112.53;5107695;28;20039;-64
2023/10/18 00:28:13;;;;;;;2.53;1.67;;;;;;;7.76;81.11;101110.34;5107772;28;20069;-65
2023/10/18 00:30:39;;;;;;;2.30;1.40;;;;;;;7.77;82.07;101108.47;5090251;28;20036;-65
2023/10/18 00:33:06;;;;;;;2.17;1.20;;;;;;;7.81;81.26;101107.50;5105615;28;20034;-66
2023/10/18 00:35:32;;;;;;;1.17;0.95;;;;;;;7.88;80.57;101102.41;5091501;28;20027;-65
2023/10/18 00:37:58;;;;;;;2.20;0.95;;;;;;;7.91;79.67;101096.41;5106190;28;20110;-68
2023/10/18 00:45:47;;;;;;;1.40;0.90;;;;;;;7.88;79.46;101102.41;5084057;28;20031;-66
2023/10/18 00:48:14;;;;;;;1.42;0.98;;;;;;;7.84;79.24;101090.75;5093852;28;20019;-69
2023/10/18 00:50:45;;;;;;;1.20;1.00;;;;;;;7.80;79.51;101100.56;5090038;28;20408;-66
2023/10/18 00:53:21;;;;;;;2.05;1.23;;;;;;;7.72;80.22;101092.59;5091052;28;20407;-65
2023/10/18 00:56:04;;;;;;;1.27;0.95;;;;;;;7.60;81.60;101089.81;5105502;27;20078;-65
2023/10/18 00:58:34;;;;;;;1.52;1.10;;;;;;;7.64;81.45;101080.00;5074285;28;20047;-65
2023/10/18 01:01:10;;;;;;;3.03;1.50;;;;;;;7.75;80.10;101092.72;5108605;28;20072;-65
2023/10/18 01:03:38;;;;;;;1.38;1.25;;;;;;;7.59;80.39;101085.56;5091797;28;20036;-66
2023/10/18 01:06:17;;;;;;;3.70;1.60;;;;;;;7.21;81.60;101086.38;5087643;28;20024;-66
2023/10/18 01:08:44;;;;;;;2.55;1.40;;;;;;;7.18;82.47;101087.00;5092326;28;20116;-66
2023/10/18 01:11:12;;;;;;;2.97;1.10;;;;;;;7.43;81.93;101079.97;5086768;28;20111;-66
2023/10/18 01:13:42;;;;;;;1.33;1.05;;;;;;;7.54;81.08;101077.69;5110838;28;20147;-65
2023/10/18 01:16:20;;;;;;;6.30;1.77;;;;;;;7.67;79.82;101072.09;5090658;28;20035;-66
2023/10/18 01:18:47;;;;;;;1.50;1.23;;;;;;;7.66;80.11;101075.91;5090032;28;20354;-66
2023/10/18 01:21:20;;;;;;;2.03;1.38;;;;;;;7.75;79.74;101081.19;5088397;28;20064;-65
2023/10/18 01:23:51;;;;;;;2.38;1.50;;;;;;;7.76;79.26;101077.44;5094277;28;20039;-66
2023/10/18 01:26:17;;;;;;;6.65;1.48;;;;;;;7.66;79.75;101077.78;5101636;28;20035;-66
2023/10/18 01:28:43;;;;;;;1.13;0.93;;;;;;;7.71;79.06;101080.28;5111375;27;20054;-66
2023/10/18 01:31:10;;;;;;;5.10;1.77;;;;;;;7.76;77.58;101082.78;5078429;28;20027;-64
2023/10/18 01:33:40;;;;;;;1.92;1.25;;;;;;;7.72;77.95;101076.50;5111749;28;20035;-65
2023/10/18 01:36:11;;;;;;;2.85;1.30;;;;;;;7.59;79.60;101067.56;5110787;28;20063;-66
2023/10/18 01:38:37;;;;;;;1.20;1.10;;;;;;;7.53;79.56;101071.56;5108253;28;20459;-65
2023/10/18 01:41:09;;;;;;;3.55;2.25;;;;;;;7.48;80.68;101066.38;5107174;28;20111;-64
2023/10/18 01:43:38;;;;;;;2.08;1.40;;;;;;;7.53;80.32;101073.47;5091160;28;20415;-65
2023/10/18 01:46:08;;;;;;;1.83;1.25;;;;;;;7.48;80.81;101069.06;5090939;28;20395;-64
2023/10/18 01:48:37;;;;;;;1.48;1.27;;;;;;;7.51;80.51;101073.75;5089745;28;20088;-65
2023/10/18 01:51:06;;;;;;;4.88;1.27;;;;;;;7.53;80.26;101076.91;5088576;28;20024;-66
2023/10/18 01:53:37;;;;;;;1.70;1.35;;;;;;;7.53;79.94;101078.81;5091854;28;20031;-65
2023/10/18 01:56:03;;;;;;;;;;;;;;;7.45;80.63;101077.75;5093470;28;20122;-66
2023/10/18 01:58:30;;;;;;;1.55;1.25;;;;;;;7.34;81.54;101078.44;5108563;28;20442;-64
2023/10/18 02:00:56;;;;;;;1.55;1.15;;;;;;;7.42;80.93;101072.25;5074473;28;20023;-66
2023/10/18 02:03:23;;;;;;;2.33;1.38;;;;;;;7.47;80.40;101069.41;5087849;28;20023;-65
2023/10/18 02:05:52;;;;;;;2.30;1.10;;;;;;;7.44;80.10;101057.41;5092385;28;20042;-65
2023/10/18 02:08:17;;;;;;;2.28;1.23;;;;;;;7.22;80.75;101063.03;5094937;28;20046;-64
2023/10/18 02:10:44;;;;;;;1.38;1.27;;;;;;;7.37;80.56;101067.06;5094098;28;20020;-64
2023/10/18 02:13:13;;;;;;;2.40;1.15;;;;;;;7.44;79.75;101064.66;5091367;28;20093;-66
2023/10/18 02:15:39;;;;;;;1.42;1.33;;;;;;;7.47;79.35;101064.81;5089583;28;20036;-65
2023/10/18 02:18:06;;;;;;;1.45;1.25;;;;;;;7.39;79.66;101062.97;5094999;28;20084;-65
2023/10/18 02:20:42;;;;;;;1.85;1.50;;;;;;;7.38;79.46;101048.00;5089237;28;20043;-64
2023/10/18 02:23:11;;;;;;;4.35;1.40;;;;;;;7.32;79.80;101047.41;5106807;28;20023;-65
2023/10/18 02:25:43;;;;;;;2.05;1.08;;;;;;;7.24;80.00;101044.75;5094753;28;20067;-66
2023/10/18 02:28:23;;;;;;;1.42;1.13;;;;;;;7.24;79.97;101039.38;5104987;28;20048;-65
2023/10/18 02:33:39;;;;;;;3.30;1.45;;;;;;;7.22;80.09;101039.72;5106562;28;20057;-66
2023/10/18 02:36:10;;;;;;;2.08;1.23;;;;;;;7.21;80.28;101034.69;5107717;27;20068;-66
2023/10/18 02:38:37;;;;;;;1.55;1.45;;;;;;;7.21;80.16;101032.00;5112278;27;20043;-64
2023/10/18 02:41:14;;;;;;;2.03;1.42;;;;;;;7.26;79.36;101035.28;5108612;28;20027;-65
2023/10/18 02:43:45;;;;;;;1.30;1.10;;;;;;;7.30;78.73;101046.13;5074280;28;20020;-66
2023/10/18 02:46:13;;;;;;;1.30;1.20;;;;;;;7.27;79.13;101033.41;5085972;28;20051;-64
2023/10/18 02:48:44;;;;;;;1.48;1.00;;;;;;;7.09;79.97;101032.69;5092019;28;20035;-67
2023/10/18 02:51:13;;;;;;;2.05;1.30;;;;;;;6.96;80.81;101030.22;5093366;28;20076;-64
2023/10/18 02:53:42;;;;;;;2.67;1.23;;;;;;;7.01;80.10;101043.44;5111290;27;20807;-66
2023/10/18 02:56:17;;;;;;;2.55;1.30;;;;;;;7.00;80.62;101037.31;5083748;28;20032;-65
2023/10/18 02:58:49;;;;;;;1.60;1.33;;;;;;;7.06;80.71;101030.69;5109062;27;20038;-65
2023/10/18 03:01:18;;;;;;;0.82;0.82;;;;;;;7.00;80.20;101029.28;5110868;28;20403;-67
2023/10/18 03:03:49;;;;;;;1.67;1.17;;;;;;;6.96;79.92;101023.00;5087768;28;20023;-66
2023/10/18 03:06:14;;;;;;;1.85;1.33;;;;;;;6.89;79.81;101027.28;5088382;28;20042;-65
2023/10/18 03:08:44;;;;;;;1.00;0.88;;;;;;;6.83;80.20;101012.50;5092923;28;20039;-67
2023/10/18 03:11:13;;;;;;;1.20;1.10;;;;;;;6.56;80.40;101024.38;5105249;28;20083;-66
2023/10/18 03:13:42;;;;;;;0.95;0.93;;;;;;;6.43;81.43;101011.97;5092437;28;20114;-66
2023/10/18 03:16:15;;;;;;;3.28;1.40;;;;;;;6.60;80.66;101006.56;5093692;28;20024;-66
2023/10/18 03:18:44;;;;;;;1.38;1.10;;;;;;;6.66;80.26;101002.63;5107616;28;20491;-66
2023/10/18 03:21:22;;;;;;;3.92;1.00;;;;;;;6.70;80.64;101000.88;5091255;28;20040;-66
2023/10/18 03:23:50;;;;;;;0.80;0.80;;;;;;;6.78;80.33;101005.41;5106793;28;20023;-66
2023/10/18 03:26:23;;;;;;;1.52;0.90;;;;;;;6.86;79.84;101007.28;5109760;28;20092;-66
2023/10/18 03:28:51;;;;;;;2.10;1.38;;;;;;;6.84;80.31;101014.06;5088761;28;20683;-65
2023/10/18 03:31:33;;;;;;;1.77;1.38;;;;;;;6.84;79.86;101003.34;5107872;28;20085;-65
2023/10/18 03:34:02;;;;;;;1.15;1.02;;;;;;;6.72;79.77;101003.22;5086217;28;20027;-65
2023/10/18 03:36:32;;;;;;;2.38;1.30;;;;;;;6.66;80.51;100997.25;5105095;28;20036;-65
2023/10/18 03:39:10;;;;;;;1.50;1.25;;;;;;;6.62;81.19;100998.25;5089483;28;20484;-65
2023/10/18 03:41:40;;;;;;;2.63;1.33;;;;;;;6.66;81.51;101002.63;5104191;28;20061;-64
2023/10/18 03:44:13;;;;;;;1.63;1.20;;;;;;;6.72;80.88;101005.91;5090564;28;20035;-67
2023/10/18 03:46:39;;;;;;;3.15;1.55;;;;;;;6.71;81.56;101007.81;5108196;28;20024;-66
2023/10/18 03:49:10;;;;;;;1.33;1.23;;;;;;;6.70;81.17;101000.06;5089188;28;20167;-67
2023/10/18 03:51:40;;;;;;;1.45;1.25;;;;;;;6.78;79.70;100997.38;5089571;28;20032;-65
2023/10/18 03:54:08;;;;;;;2.10;1.50;;;;;;;6.81;79.04;100987.94;5087497;28;20031;-65
2023/10/18 03:56:37;;;;;;;4.05;1.35;;;;;;;6.71;80.06;100988.28;5087171;28;20047;-64
2023/10/18 03:59:21;;;;;;;2.08;1.27;;;;;;;6.68;80.37;100991.63;5087844;28;20034;-65
2023/10/18 04:04:34;;;;;;;2.63;1.60;;;;;;;6.64;80.72;100986.09;5106752;28;20111;-66
2023/10/18 04:07:01;;;;;;;;;;;;;;;6.69;81.31;100983.25;5089241;28;20059;-65
2023/10/18 04:09:27;;;;;;;1.20;1.10;;;;;;;6.53;81.24;100979.53;5104573;28;19916;-66
2023/10/18 04:11:53;;;;;;;1.50;1.23;;;;;;;6.57;82.00;100977.00;5087135;28;20467;-66
2023/10/18 04:14:22;;;;;;;1.20;1.10;;;;;;;6.49;81.56;100965.22;5089689;28;20059;-64
2023/10/18 04:16:56;;;;;;;1.30;1.20;;;;;;;6.58;81.39;100962.53;5106328;28;20036;-65
2023/10/18 04:19:22;;;;;;;1.40;1.10;;;;;;;6.61;81.16;100967.22;5107071;28;20427;-66
2023/10/18 04:21:52;;;;;;;2.55;1.42;;;;;;;6.64;80.51;100962.00;5071684;28;20023;-66
2023/10/18 04:24:20;;;;;;;1.60;1.40;;;;;;;6.66;80.56;100959.81;5087602;28;20464;-66
2023/10/18 04:26:47;;;;;;;1.35;1.17;;;;;;;6.58;80.74;100963.28;5078709;28;20285;-66
2023/10/18 04:29:22;;;;;;;1.10;1.00;;;;;;;6.49;81.63;100967.88;5086656;28;20050;-67
2023/10/18 04:31:49;;;;;;;1.27;1.10;;;;;;;6.48;82.52;100970.91;5090158;28;20037;-66
2023/10/18 04:34:18;;;;;;;1.08;0.90;;;;;;;6.57;81.79;100961.72;5089167;28;20036;-66
2023/10/18 04:36:44;;;;;;;1.38;1.23;;;;;;;6.67;80.24;100960.59;5107154;28;20043;-66
2023/10/18 04:39:11;;;;;;;2.08;1.25;;;;;;;6.65;79.67;100966.28;5103940;28;20032;-66
2023/10/18 04:41:37;;;;;;;1.17;1.08;;;;;;;6.60;80.36;100952.28;5110510;28;20028;-65
2023/10/18 04:44:07;;;;;;;3.92;1.63;;;;;;;6.53;80.40;100955.44;5088715;28;20042;-65
2023/10/18 04:46:36;;;;;;;2.60;1.73;;;;;;;6.26;81.66;100950.50;5087938;28;20063;-65
2023/10/18 04:51:44;;;;;;;1.25;1.10;;;;;;;6.44;81.25;100952.03;5105795;28;20128;-66
2023/10/18 04:54:15;;;;;;;1.00;1.00;;;;;;;6.41;81.55;100946.53;5087437;28;20072;-66
2023/10/18 04:56:44;;;;;;;1.80;1.45;;;;;;;6.42;82.24;100946.22;5091190;28;20035;-66
2023/10/18 04:59:11;;;;;;;2.47;1.40;;;;;;;6.34;81.99;100945.13;5107798;28;20542;-66
2023/10/18 05:01:56;;;;;;;1.48;1.38;;;;;;;6.35;82.60;100941.34;5086997;28;20081;-66
2023/10/18 05:04:34;;;;;;;2.03;1.27;;;;;;;6.49;82.91;100948.38;5107080;28;20055;-65
2023/10/18 05:07:04;;;;;;;2.47;1.48;;;;;;;6.13;84.00;100930.09;5092676;28;20027;-64
2023/10/18 05:09:34;;;;;;;1.30;1.20;;;;;;;6.33;83.88;100932.06;5109062;28;20500;-65
2023/10/18 05:12:07;;;;;;;2.05;1.23;;;;;;;6.44;83.54;100930.63;5103444;28;20038;-65
2023/10/18 05:14:40;;;;;;;1.42;1.10;;;;;;;6.30;83.87;100935.38;5086432;28;20043;-67
2023/10/18 05:17:10;;;;;;;1.77;1.42;;;;;;;6.22;83.79;100938.84;5103738;28;20107;-65
2023/10/18 05:19:41;;;;;;;2.10;1.55;;;;;;;6.27;83.60;100936.03;5106621;28;20105;-65
2023/10/18 05:22:08;;;;;;;1.65;1.25;;;;;;;6.24;83.04;100932.09;5092112;28;20035;-65
2023/10/18 05:24:37;;;;;;;1.20;1.10;;;;;;;6.34;83.23;100921.06;5106095;28;20027;-64
2023/10/18 05:27:24;;;;;;;6.20;1.80;;;;;;;6.36;83.19;100918.84;5084907;28;20027;-65
2023/10/18 05:29:59;;;;;;;1.48;1.15;;;;;;;6.44;83.09;100925.28;5090459;28;20043;-65
2023/10/18 05:35:04;;;;;;;1.67;1.30;;;;;;;6.47;83.05;100927.31;5107894;28;20492;-66
2023/10/18 05:37:34;;;;;;;2.78;1.52;;;;;;;6.46;83.20;100931.09;5091406;28;20061;-65
2023/10/18 05:42:48;;;;;;;1.42;1.27;;;;;;;6.19;83.47;100918.13;5090916;28;20038;-65
2023/10/18 05:45:13;;;;;;;2.03;1.23;;;;;;;6.29;84.04;100929.25;5103876;28;20118;-65
2023/10/18 05:47:42;;;;;;;1.80;1.35;;;;;;;6.01;84.43;100927.28;5110548;28;20047;-65
2023/10/18 05:50:12;;;;;;;3.72;1.45;;;;;;;5.83;86.29;100915.81;5087286;28;20020;-64
2023/10/18 05:52:48;;;;;;;1.75;1.38;;;;;;;6.08;84.90;100922.22;5105242;28;20065;-66
2023/10/18 05:55:14;;;;;;;2.33;1.23;;;;;;;5.81;85.15;100917.19;5089391;28;20028;-66
2023/10/18 05:57:40;;;;;;;2.95;1.48;;;;;;;6.11;84.57;100921.59;5110795;28;20039;-67
2023/10/18 06:00:17;;;;;;;3.05;1.65;;;;;;;6.16;84.80;100929.44;5090096;28;20019;-67
2023/10/18 06:02:46;;;;;;;2.30;1.25;;;;;;;6.30;84.79;100924.69;5105504;28;20035;-65
2023/10/18 06:05:15;;;;;;;1.85;1.38;;;;;;;6.46;84.72;100928.41;5107693;28;20034;-65
2023/10/18 06:07:41;;;;;;;1.27;1.15;;;;;;;6.50;84.23;100933.91;5088757;28;20164;-65
2023/10/18 06:10:16;;;;;;;1.63;1.00;;;;;;;6.57;84.36;100931.50;5086954;28;20050;-65
2023/10/18 06:12:47;;;;;;;2.00;1.08;;;;;;;6.63;83.41;100939.06;5109821;28;20062;-65
2023/10/18 06:15:14;;;;;;;1.48;1.27;;;;;;;6.56;83.55;100925.41;5110403;28;20038;-66
2023/10/18 06:20:27;;;;;;;1.98;1.50;;;;;;;6.45;85.19;100926.03;5108687;28;20044;-66
2023/10/18 06:25:57;;;;;;;1.27;1.13;;;;;;;6.66;84.82;100917.00;5063950;28;19957;-70
2023/10/18 06:28:26;;;;;;;3.15;1.77;;;;;;;6.77;84.45;100920.91;5100824;28;20423;-65
2023/10/18 06:30:56;;;;;;;1.80;1.48;;;;;;;6.77;83.99;100923.56;5106485;28;20027;-67
2023/10/18 06:33:23;;;;;;;2.50;1.75;;;;;;;6.85;84.79;100921.97;5091666;28;20042;-67
2023/10/18 06:35:52;;;;;;;1.45;1.08;;;;;;;6.79;85.01;100928.59;5112335;28;20036;-66
2023/10/18 06:38:22;;;;;;;2.22;1.45;;;;;;;6.77;85.37;100914.75;5086417;28;20058;-65
2023/10/18 06:43:25;;;;;;;1.92;1.50;;;;;;;6.96;85.58;100918.59;5105674;28;20046;-67
2023/10/18 06:45:51;;;;;;;1.58;1.35;;;;;;;6.91;85.70;100916.09;5108836;28;20036;-64
2023/10/18 06:48:17;;;;;;;2.45;1.95;;;;;;;6.61;86.82;100914.50;5089338;28;20031;-66
2023/10/18 06:50:46;;;;;;;1.75;1.45;;;;;;;6.15;89.25;100917.19;5088530;28;20052;-66
2023/10/18 06:53:18;;;;;;;2.50;1.73;;;;;;;6.49;89.04;100913.59;5104877;28;20027;-66
2023/10/18 06:55:44;;;;;;;2.17;1.75;;;;;;;6.50;88.00;100912.50;5084817;28;20555;-65
2023/10/18 06:58:13;;;;;;;2.50;1.70;;;;;;;6.73;88.62;100909.28;5108634;28;20145;-64
2023/10/18 07:00:43;;;;;;;1.77;1.33;;;;;;;6.82;88.86;100910.00;5092740;28;20038;-65
2023/10/18 07:03:16;;;;;;;2.45;1.30;;;;;;;6.97;87.71;100917.47;5104537;28;20046;-65
2023/10/18 07:05:54;;;;;;;3.60;1.77;;;;;;;6.92;88.69;100908.84;5097854;28;20073;-66
2023/10/18 07:08:32;;;;;;;1.95;1.52;;;;;;;6.89;88.16;100904.16;5088185;28;20104;-64
2023/10/18 07:11:01;;;;;;;1.77;1.58;;;;;;;6.82;88.35;100898.50;5109766;28;20484;-65
2023/10/18 07:13:33;;;;;;;2.47;1.60;;;;;;;7.11;88.25;100899.28;5107314;28;20031;-65
2023/10/18 07:16:12;;;;;;;2.65;1.83;;;;;;;7.25;88.19;100901.72;5107010;28;20078;-67
2023/10/18 07:18:38;;;;;;;2.47;1.58;;;;;;;7.29;87.62;100895.38;5092534;28;20472;-65
2023/10/18 07:21:07;;;;;;;2.67;1.70;;;;;;;7.22;88.29;100889.75;5093356;28;20484;-66
2023/10/18 07:23:36;;;;;;;2.53;1.52;;;;;;;7.54;88.29;100887.47;5108831;28;20111;-66
2023/10/18 07:26:13;;;;;;;1.77;1.40;;;;;;;7.51;88.62;100886.22;5108739;28;20027;-65
2023/10/18 07:28:40;;;;;;;3.55;1.90;;;;;;;7.38;89.66;100894.50;5106695;28;20035;-66
2023/10/18 07:31:10;;;;;;;2.90;1.65;;;;;;;7.35;90.15;100884.47;5085926;28;20425;-65
2023/10/18 07:33:41;;;;;;;4.05;1.77;;;;;;;7.70;89.92;100883.06;5105450;28;20452;-65
2023/10/18 07:36:08;;;;;;;1.67;1.30;;;;;;;7.88;89.75;100887.94;5104146;28;20114;-65
2023/10/18 07:38:37;;;;;;;2.22;1.50;;;;;;;8.05;89.19;100881.63;5108679;28;20502;-66
2023/10/18 07:41:04;;;;;;;1.98;1.58;;;;;;;7.88;89.57;100881.78;5092803;28;20030;-65
2023/10/18 07:43:32;;;;;;;2.35;1.30;;;;;;;8.03;90.03;100878.47;5111499;28;20035;-64
2023/10/18 07:45:58;;;;;;;2.03;1.50;;;;;;;8.41;88.54;100868.28;5109565;28;20036;-64
2023/10/18 07:48:27;;;;;;;2.60;1.58;;;;;;;8.66;87.69;100869.06;5086832;28;20049;-66
2023/10/18 07:50:54;;;;;;;2.47;1.33;;;;;;;8.83;86.92;100864.25;5089281;28;20076;-66
2023/10/18 07:53:22;;;;;;;1.40;1.30;;;;;;;8.89;86.24;100860.22;5110389;28;20122;-65
2023/10/18 07:55:53;;;;;;;3.60;1.50;;;;;;;8.90;87.62;100861.75;5090386;28;20133;-67
2023/10/18 07:58:26;;;;;;;3.72;1.45;;;;;;;8.96;88.15;100871.16;5105635;28;20051;-64
2023/10/18 08:01:09;;;;;;;2.40;1.65;;;;;;;9.39;86.87;100865.13;5109484;28;20028;-67
2023/10/18 08:03:35;;;;;;;4.13;1.58;;;;;;;9.64;85.78;100857.78;5090505;28;20050;-64
2023/10/18 08:06:15;;;;;;;6.47;1.33;;;;;;;9.72;85.26;100860.28;5090340;28;20092;-64
2023/10/18 08:08:46;;;;;;;1.67;1.40;;;;;;;9.86;85.44;100863.38;5089843;28;20115;-67
2023/10/18 08:11:12;;;;;;;1.95;1.15;;;;;;;9.94;85.30;100861.66;5110259;28;20498;-64
2023/10/18 08:13:47;;;;;;;2.40;1.73;;;;;;;10.06;84.98;100864.28;5108196;28;20062;-64
2023/10/18 08:16:27;;;;;;;1.63;1.33;;;;;;;10.23;85.17;100869.34;5104415;28;20035;-64
2023/10/18 08:18:53;;;;;;;1.40;1.30;;;;;;;10.14;85.82;100860.66;5087385;28;20031;-64
2023/10/18 08:21:37;;;;;;;3.15;1.80;;;;;;;10.11;86.43;100858.66;5107315;28;20134;-64
2023/10/18 08:24:19;;;;;;;2.53;1.48;;;;;;;9.98;86.10;100854.44;5107574;28;20024;-65
2023/10/18 08:26:47;;;;;;;2.40;1.70;;;;;;;9.86;87.67;100851.81;5101516;28;20084;-64
2023/10/18 08:29:14;;;;;;;2.08;1.50;;;;;;;10.07;86.89;100846.97;5088767;28;20081;-65
2023/10/18 08:31:40;;;;;;;2.58;1.70;;;;;;;10.04;86.89;100843.06;5104393;28;20032;-66
2023/10/18 08:34:05;;;;;;;2.45;1.75;;;;;;;10.39;86.58;100837.84;5108944;28;20460;-63
2023/10/18 08:36:34;;;;;;;2.03;1.58;;;;;;;10.50;85.94;100836.16;5109678;28;20042;-65
2023/10/18 08:39:04;;;;;;;2.00;1.48;;;;;;;10.57;86.45;100841.69;5105510;28;20027;-65
2023/10/18 08:41:33;;;;;;;2.45;1.75;;;;;;;10.65;85.12;100829.97;5088195;28;20050;-64
2023/10/18 08:44:19;;;;;;;3.00;1.70;;;;;;;10.81;84.66;100843.41;5105015;28;20114;-65
2023/10/18 08:47:34;;;;;;;3.40;1.90;;;;;;;10.98;85.53;100836.84;5105502;28;20106;-66
2023/10/18 08:49:52;;;;;;;1.83;1.65;;;;;;;10.93;86.15;100832.53;5098945;28;20044;-66
2023/10/18 08:52:20;;;;;;;3.65;1.80;;;;;;;10.95;86.48;100830.25;5104920;28;20036;-64
2023/10/18 08:54:48;;;;;;;2.13;1.35;;;;;;;10.89;85.61;100839.75;5075538;28;20101;-65
2023/10/18 08:57:58;;;;;;;1.98;1.27;;;;;;;11.22;84.71;100826.59;5102594;28;20411;-66
2023/10/18 09:02:51;;;;;;;4.70;1.65;;;;;;;11.60;83.25;100831.19;5104176;28;20131;-65
2023/10/18 09:05:22;;;;;;;2.70;1.45;;;;;;;11.94;82.55;100826.81;5110389;28;20092;-64
2023/10/18 09:07:53;;;;;;;2.40;1.35;;;;;;;12.19;80.91;100826.09;5110561;28;20036;-68
2023/10/18 09:15:54;;;;;;;2.22;1.38;;;;;;;12.51;79.79;100816.56;5109076;28;20039;-65
2023/10/18 09:18:24;;;;;;;2.63;1.40;;;;;;;12.67;80.07;100824.53;5108839;28;20023;-65
2023/10/18 09:20:50;;;;;;;1.40;1.15;;;;;;;12.62;78.55;100814.81;5109932;28;20059;-67
2023/10/18 09:23:20;;;;;;;2.45;1.60;;;;;;;12.80;77.47;100817.75;5092952;28;20055;-66
2023/10/18 09:26:05;;;;;;;1.55;1.23;;;;;;;12.70;77.58;100823.78;5108529;28;20024;-67
2023/10/18 09:28:33;;;;;;;2.17;1.73;;;;;;;12.73;76.66;100823.06;5113482;28;20549;-67
2023/10/18 09:31:09;;;;;;;4.43;1.40;;;;;;;12.93;76.40;100816.38;5113436;28;20055;-66
2023/10/18 09:34:33;;;;;;;1.77;1.48;;;;;;;13.13;76.33;100811.66;5111638;28;20031;-66
2023/10/18 09:36:28;;;;;;;1.88;1.27;;;;;;;13.24;76.40;100816.03;5093622;28;20044;-65
2023/10/18 09:38:55;;;;;;;0.77;0.65;;;;;;;13.24;75.45;100816.03;5109653;28;20043;-67
2023/10/18 09:41:21;;;;;;;3.20;1.10;;;;;;;13.15;73.99;100820.19;5111047;28;20445;-67
2023/10/18 09:43:47;;;;;;;1.10;1.00;;;;;;;13.35;74.46;100805.38;5113578;28;20057;-66
2023/10/18 09:46:14;;;;;;;2.63;1.30;;;;;;;13.36;72.77;100806.91;5095396;28;20031;-66
2023/10/18 09:48:42;;;;;;;1.45;1.10;;;;;;;13.45;72.01;100799.31;5087689;28;20038;-66
2023/10/18 09:51:15;;;;;;;4.00;1.33;;;;;;;13.48;71.49;100804.75;5110477;28;20531;-67
2023/10/18 09:53:49;;;;;;;1.55;1.00;;;;;;;13.43;70.52;100807.75;5082901;28;20032;-66
2023/10/18 09:56:27;;;;;;;2.42;1.17;;;;;;;13.34;70.84;100810.00;5113325;28;20043;-66
2023/10/18 09:59:04;;;;;;;1.17;1.02;;;;;;;13.52;69.95;100804.78;5094902;28;20446;-66
2023/10/18 10:01:53;;;;;;;1.48;1.20;;;;;;;13.63;69.73;100799.50;5108370;28;20032;-66
2023/10/18 10:04:20;;;;;;;0.80;0.80;;;;;;;13.74;68.85;100795.75;5094151;28;20352;-65
2023/10/18 10:06:52;;;;;;;2.38;1.00;;;;;;;13.85;68.51;100793.91;5108622;28;20072;-66
2023/10/18 10:09:19;;;;;;;1.38;0.98;;;;;;;13.97;68.25;100798.25;5107470;28;20111;-65
2023/10/18 10:11:47;;;;;;;1.25;1.00;;;;;;;13.89;68.07;100783.88;5104726;28;20027;-65
2023/10/18 10:14:18;;;;;;;1.73;1.20;;;;;;;13.94;65.63;100777.31;5089481;28;20036;-66
2023/10/18 10:16:58;;;;;;;1.90;1.20;;;;;;;13.85;63.75;100768.75;5108739;28;20413;-65
2023/10/18 10:19:29;;;;;;;2.07;0.87;;;;;;;13.99;66.25;100777.78;5106846;28;20180;-65
2023/10/18 10:22:04;;;;;;;1.88;1.00;;;;;;;13.98;65.26;100767.31;5107100;28;20354;-65
2023/10/18 10:32:45;;;;;;;2.33;1.13;;;;;;;14.04;66.27;100761.19;5108762;28;20035;-66
2023/10/18 10:35:16;;;;;;;1.48;0.90;;;;;;;14.01;64.75;100761.94;5107976;28;20042;-67
2023/10/18 10:37:46;;;;;;;1.60;1.17;;;;;;;13.99;63.49;100763.47;5110033;28;20035;-66
2023/10/18 10:40:19;;;;;;;3.25;1.00;;;;;;;14.04;63.92;100750.34;5107468;28;21297;-66
2023/10/18 10:42:48;;;;;;;5.88;1.70;;;;;;;13.89;66.15;100739.78;5107203;28;20041;-65
2023/10/18 10:45:35;;;;;;;1.80;1.00;;;;;;;14.01;65.72;100740.28;5095146;27;20505;-65
2023/10/18 10:50:45;;;;;;;1.37;1.10;;;;;;;13.88;65.50;100735.53;5102350;28;20036;-64
2023/10/18 10:53:28;;;;;;;1.92;0.90;;;;;;;13.93;64.33;100722.41;5089823;27;20273;-65
2023/10/18 10:55:54;;;;;;;2.10;1.38;;;;;;;13.58;66.71;100722.91;5108767;28;20201;-68
2023/10/18 10:58:22;;;;;;;0.80;0.80;;;;;;;13.74;66.77;100728.06;5108547;28;20118;-68
2023/10/18 11:01:31;;;;;;;1.08;0.98;;;;;;;13.88;66.23;100722.75;5104653;28;20445;-66
2023/10/18 11:03:59;;;;;;;4.10;1.33;;;;;;;13.87;66.03;100715.78;5077821;28;20036;-65
2023/10/18 11:06:32;;;;;;;2.38;1.10;;;;;;;14.10;65.95;100723.69;5109016;28;20069;-65
2023/10/18 11:08:58;;;;;;;2.45;1.10;;;;;;;14.03;65.48;100718.22;5108335;28;20788;-65
2023/10/18 11:11:27;;;;;;;1.70;1.25;;;;;;;14.09;65.31;100708.63;5108895;28;20051;-67
2023/10/18 11:13:53;;;;;;;0.73;0.73;;;;;;;14.26;64.33;100705.22;5102188;27;20162;-67
2023/10/18 11:16:22;;;;;;;2.22;1.20;;;;;;;14.27;64.54;100699.47;5110016;27;20023;-66
2023/10/18 11:18:52;;;;;;;1.25;1.00;;;;;;;14.25;65.38;100700.97;5109886;27;20074;-66
2023/10/18 11:21:24;;;;;;;2.80;1.35;;;;;;;13.92;64.44;100696.47;5091721;27;20035;-66
2023/10/18 11:23:57;;;;;;;2.03;1.20;;;;;;;13.98;64.86;100689.56;5100741;27;20032;-65
2023/10/18 11:26:27;;;;;;;3.75;1.13;;;;;;;14.20;63.99;100695.91;5105555;27;20024;-66
2023/10/18 11:28:58;;;;;;;1.50;1.05;;;;;;;14.03;63.54;100691.91;5108058;27;20027;-65
2023/10/18 11:31:28;;;;;;;2.97;0.90;;;;;;;13.98;63.72;100686.84;5089672;28;20023;-67
2023/10/18 11:34:05;;;;;;;1.67;1.17;;;;;;;14.24;63.09;100683.94;5108584;28;20063;-65
2023/10/18 11:36:32;;;;;;;3.20;1.17;;;;;;;13.94;63.70;100675.22;5105985;27;20060;-67
2023/10/18 11:41:44;;;;;;;1.33;1.00;;;;;;;14.41;62.51;100680.59;5105960;27;20044;-66
2023/10/18 11:44:14;;;;;;;1.75;1.20;;;;;;;14.38;61.85;100673.19;5096769;27;20027;-66
2023/10/18 11:46:56;;;;;;;1.88;1.10;;;;;;;14.39;61.59;100680.19;5087863;28;20031;-65
2023/10/18 11:49:22;;;;;;;0.95;0.85;;;;;;;14.52;60.92;100666.31;5086359;28;20036;-64
2023/10/18 11:51:50;;;;;;;1.13;1.02;;;;;;;14.34;62.01;100668.94;5073575;28;20510;-65
2023/10/18 11:54:36;;;;;;;1.58;1.10;;;;;;;14.41;61.69;100668.97;5107222;28;20032;-65
2023/10/18 11:57:07;;;;;;;1.55;0.93;;;;;;;14.43;61.92;100662.00;5109652;28;20043;-66
2023/10/18 11:59:51;;;;;;;1.23;0.90;;;;;;;14.63;61.95;100648.16;5108959;28;20471;-65
2023/10/18 12:02:16;;;;;;;2.45;1.42;;;;;;;14.62;61.17;100654.72;5107120;28;20059;-66
2023/10/18 12:04:44;;;;;;;1.70;1.30;;;;;;;14.36;61.36;100653.84;5090294;28;20024;-65
2023/10/18 12:07:13;;;;;;;1.05;0.95;;;;;;;14.39;60.91;100633.34;5106274;28;20050;-65
2023/10/18 12:09:51;;;;;;;1.35;1.05;;;;;;;14.55;61.39;100628.38;5100475;28;20039;-66
2023/10/18 12:12:20;;;;;;;3.92;1.40;;;;;;;14.68;61.94;100632.28;5106299;28;20035;-66
2023/10/18 12:14:47;;;;;;;2.22;1.27;;;;;;;14.76;62.00;100628.44;5090042;28;20031;-66
2023/10/18 12:17:13;;;;;;;2.03;1.42;;;;;;;14.44;61.96;100611.28;5104903;28;20084;-66
2023/10/18 12:19:40;;;;;;;3.47;1.75;;;;;;;14.61;60.97;100618.72;5107749;28;20057;-66
2023/10/18 12:22:07;;;;;;;2.10;1.30;;;;;;;14.59;59.92;100612.13;5085965;28;20503;-66
2023/10/18 12:24:33;;;;;;;3.15;1.98;;;;;;;14.44;59.55;100609.34;5089179;28;20039;-66
2023/10/18 12:29:52;;;;;;;3.45;1.67;;;;;;;14.50;61.54;100606.28;5105664;28;20114;-66
2023/10/18 12:34:56;;;;;;;;;;;;;;;14.64;59.57;100598.19;5107082;28;20032;-66
2023/10/18 12:37:24;;;;;;;1.88;1.42;;;;;;;14.63;60.71;100596.66;5088832;28;19930;-66
2023/10/18 12:39:49;;;;;;;1.52;1.42;;;;;;;14.72;60.43;100594.34;5106963;28;20105;-67
2023/10/18 12:42:19;;;;;;;1.60;1.35;;;;;;;14.60;60.62;100586.56;5101782;28;20096;-69